sensor_id;sensor_type;location;lat;lon;timestamp;P1;durP1;ratioP1;P2;durP2;ratioP2
67508;SDS011;54354;44.724;11.284;2023-08-06T00:00:24;1.00;;;0.20;;
67508;SDS011;54354;44.724;11.284;2023-08-06T00:02:50;1.58;;;0.30;;
67508;SDS011;54354;44.724;11.284;2023-08-06T00:05:16;2.42;;;0.30;;
67508;SDS011;54354;44.724;11.284;2023-08-06T00:07:46;3.70;;;0.60;;
67508;SDS011;54354;44.724;11.284;2023-08-06T00:10:12;2.73;;;0.47;;
67508;SDS011;54354;44.724;11.284;2023-08-06T00:12:38;4.95;;;0.50;;
67508;SDS011;54354;44.724;11.284;2023-08-06T00:15:03;1.67;;;0.40;;
67508;SDS011;54354;44.724;11.284;2023-08-06T00:17:29;2.63;;;0.52;;
67508;SDS011;54354;44.724;11.284;2023-08-06T00:19:54;1.58;;;0.40;;
67508;SDS011;54354;44.724;11.284;2023-08-06T00:22:20;1.95;;;0.40;;
67508;SDS011;54354;44.724;11.284;2023-08-06T00:24:45;5.13;;;0.40;;
67508;SDS011;54354;44.724;11.284;2023-08-06T00:27:11;5.43;;;0.40;;
67508;SDS011;54354;44.724;11.284;2023-08-06T00:29:36;3.13;;;0.30;;
67508;SDS011;54354;44.724;11.284;2023-08-06T00:32:02;2.35;;;0.30;;
67508;SDS011;54354;44.724;11.284;2023-08-06T00:34:28;2.47;;;0.30;;
67508;SDS011;54354;44.724;11.284;2023-08-06T00:36:53;1.98;;;0.30;;
67508;SDS011;54354;44.724;11.284;2023-08-06T00:39:19;1.98;;;0.30;;
67508;SDS011;54354;44.724;11.284;2023-08-06T00:41:44;3.22;;;0.32;;
67508;SDS011;54354;44.724;11.284;2023-08-06T00:44:10;2.95;;;0.30;;
67508;SDS011;54354;44.724;11.284;2023-08-06T00:46:36;2.67;;;0.32;;
67508;SDS011;54354;44.724;11.284;2023-08-06T00:49:02;1.27;;;0.30;;
67508;SDS011;54354;44.724;11.284;2023-08-06T00:51:27;4.93;;;0.40;;
67508;SDS011;54354;44.724;11.284;2023-08-06T00:53:53;2.28;;;0.40;;
67508;SDS011;54354;44.724;11.284;2023-08-06T00:56:19;2.83;;;0.30;;
67508;SDS011;54354;44.724;11.284;2023-08-06T00:58:45;1.60;;;0.30;;
67508;SDS011;54354;44.724;11.284;2023-08-06T01:01:11;3.08;;;0.30;;
67508;SDS011;54354;44.724;11.284;2023-08-06T01:03:37;7.32;;;0.50;;
67508;SDS011;54354;44.724;11.284;2023-08-06T01:06:03;2.00;;;0.30;;
67508;SDS011;54354;44.724;11.284;2023-08-06T01:14:30;4.03;;;0.40;;
67508;SDS011;54354;44.724;11.284;2023-08-06T01:17:07;2.78;;;0.60;;
67508;SDS011;54354;44.724;11.284;2023-08-06T01:19:33;4.38;;;0.40;;
67508;SDS011;54354;44.724;11.284;2023-08-06T01:21:58;3.90;;;0.40;;
67508;SDS011;54354;44.724;11.284;2023-08-06T01:24:24;1.23;;;0.30;;
67508;SDS011;54354;44.724;11.284;2023-08-06T01:27:09;1.67;;;0.50;;
67508;SDS011;54354;44.724;11.284;2023-08-06T01:30:00;3.90;;;0.50;;
67508;SDS011;54354;44.724;11.284;2023-08-06T01:32:53;2.15;;;0.32;;
67508;SDS011;54354;44.724;11.284;2023-08-06T01:35:26;4.75;;;0.50;;
67508;SDS011;54354;44.724;11.284;2023-08-06T01:37:54;1.50;;;0.25;;
67508;SDS011;54354;44.724;11.284;2023-08-06T01:40:22;7.13;;;0.45;;
67508;SDS011;54354;44.724;11.284;2023-08-06T01:42:48;3.88;;;0.40;;
67508;SDS011;54354;44.724;11.284;2023-08-06T01:45:13;2.08;;;0.30;;
67508;SDS011;54354;44.724;11.284;2023-08-06T01:47:39;3.50;;;0.30;;
67508;SDS011;54354;44.724;11.284;2023-08-06T01:50:05;2.35;;;0.45;;
67508;SDS011;54354;44.724;11.284;2023-08-06T01:52:30;2.25;;;0.30;;
67508;SDS011;54354;44.724;11.284;2023-08-06T01:54:57;3.75;;;0.30;;
67508;SDS011;54354;44.724;11.284;2023-08-06T01:57:23;3.83;;;0.40;;
67508;SDS011;54354;44.724;11.284;2023-08-06T01:59:48;2.92;;;0.40;;
67508;SDS011;54354;44.724;11.284;2023-08-06T02:02:14;1.98;;;0.40;;
67508;SDS011;54354;44.724;11.284;2023-08-06T02:04:39;3.90;;;0.30;;
67508;SDS011;54354;44.724;11.284;2023-08-06T02:07:05;2.08;;;0.30;;
67508;SDS011;54354;44.724;11.284;2023-08-06T02:09:30;4.45;;;0.50;;
67508;SDS011;54354;44.724;11.284;2023-08-06T02:11:56;1.50;;;0.50;;
67508;SDS011;54354;44.724;11.284;2023-08-06T02:14:22;5.88;;;0.80;;
67508;SDS011;54354;44.724;11.284;2023-08-06T02:16:47;4.70;;;0.80;;
67508;SDS011;54354;44.724;11.284;2023-08-06T02:19:13;4.82;;;0.60;;
67508;SDS011;54354;44.724;11.284;2023-08-06T02:21:39;4.65;;;0.30;;
67508;SDS011;54354;44.724;11.284;2023-08-06T02:24:05;4.95;;;0.30;;
67508;SDS011;54354;44.724;11.284;2023-08-06T02:26:30;1.75;;;0.30;;
67508;SDS011;54354;44.724;11.284;2023-08-06T02:28:56;3.88;;;0.40;;
67508;SDS011;54354;44.724;11.284;2023-08-06T02:31:21;2.72;;;0.22;;
67508;SDS011;54354;44.724;11.284;2023-08-06T02:33:47;3.58;;;0.32;;
67508;SDS011;54354;44.724;11.284;2023-08-06T02:36:12;1.10;;;0.30;;
67508;SDS011;54354;44.724;11.284;2023-08-06T02:38:38;2.70;;;0.30;;
67508;SDS011;54354;44.724;11.284;2023-08-06T02:41:03;3.55;;;0.55;;
67508;SDS011;54354;44.724;11.284;2023-08-06T02:43:30;6.72;;;0.55;;
67508;SDS011;54354;44.724;11.284;2023-08-06T02:45:59;3.67;;;0.50;;
67508;SDS011;54354;44.724;11.284;2023-08-06T02:50:51;3.00;;;0.40;;
67508;SDS011;54354;44.724;11.284;2023-08-06T02:53:17;5.65;;;0.60;;
67508;SDS011;54354;44.724;11.284;2023-08-06T02:55:45;1.48;;;0.20;;
67508;SDS011;54354;44.724;11.284;2023-08-06T02:58:14;4.28;;;0.90;;
67508;SDS011;54354;44.724;11.284;2023-08-06T03:00:45;1.23;;;0.70;;
67508;SDS011;54354;44.724;11.284;2023-08-06T03:03:12;1.65;;;0.68;;
67508;SDS011;54354;44.724;11.284;2023-08-06T03:05:51;4.57;;;0.40;;
67508;SDS011;54354;44.724;11.284;2023-08-06T03:08:28;4.60;;;0.30;;
67508;SDS011;54354;44.724;11.284;2023-08-06T03:10:54;3.40;;;0.20;;
67508;SDS011;54354;44.724;11.284;2023-08-06T03:13:19;1.75;;;0.30;;
67508;SDS011;54354;44.724;11.284;2023-08-06T03:15:52;2.15;;;0.30;;
67508;SDS011;54354;44.724;11.284;2023-08-06T03:18:19;2.08;;;0.28;;
67508;SDS011;54354;44.724;11.284;2023-08-06T03:20:44;4.70;;;0.32;;
67508;SDS011;54354;44.724;11.284;2023-08-06T03:23:11;2.58;;;0.30;;
67508;SDS011;54354;44.724;11.284;2023-08-06T03:25:36;1.08;;;0.20;;
67508;SDS011;54354;44.724;11.284;2023-08-06T03:28:03;3.08;;;0.30;;
67508;SDS011;54354;44.724;11.284;2023-08-06T03:30:29;2.47;;;0.32;;
67508;SDS011;54354;44.724;11.284;2023-08-06T03:32:54;2.67;;;0.20;;
67508;SDS011;54354;44.724;11.284;2023-08-06T03:35:21;2.88;;;0.30;;
67508;SDS011;54354;44.724;11.284;2023-08-06T03:37:47;1.15;;;0.22;;
67508;SDS011;54354;44.724;11.284;2023-08-06T03:40:13;1.23;;;0.30;;
67508;SDS011;54354;44.724;11.284;2023-08-06T03:42:39;0.57;;;0.20;;
67508;SDS011;54354;44.724;11.284;2023-08-06T03:45:05;1.50;;;0.28;;
67508;SDS011;54354;44.724;11.284;2023-08-06T03:47:32;1.33;;;0.30;;
67508;SDS011;54354;44.724;11.284;2023-08-06T03:49:58;3.13;;;0.43;;
67508;SDS011;54354;44.724;11.284;2023-08-06T03:52:24;0.65;;;0.20;;
67508;SDS011;54354;44.724;11.284;2023-08-06T03:54:49;2.92;;;0.40;;
67508;SDS011;54354;44.724;11.284;2023-08-06T03:57:15;2.88;;;0.35;;
67508;SDS011;54354;44.724;11.284;2023-08-06T03:59:41;2.30;;;0.32;;
67508;SDS011;54354;44.724;11.284;2023-08-06T04:02:06;0.50;;;0.20;;
67508;SDS011;54354;44.724;11.284;2023-08-06T04:04:32;1.45;;;0.30;;
67508;SDS011;54354;44.724;11.284;2023-08-06T04:06:57;1.00;;;0.28;;
67508;SDS011;54354;44.724;11.284;2023-08-06T04:09:23;4.38;;;0.40;;
67508;SDS011;54354;44.724;11.284;2023-08-06T04:11:48;1.10;;;0.30;;
67508;SDS011;54354;44.724;11.284;2023-08-06T04:14:14;2.95;;;0.30;;
67508;SDS011;54354;44.724;11.284;2023-08-06T04:16:39;1.35;;;0.30;;
67508;SDS011;54354;44.724;11.284;2023-08-06T04:19:06;1.38;;;0.32;;
67508;SDS011;54354;44.724;11.284;2023-08-06T04:21:32;3.08;;;0.40;;
67508;SDS011;54354;44.724;11.284;2023-08-06T04:23:59;3.55;;;0.35;;
67508;SDS011;54354;44.724;11.284;2023-08-06T04:26:25;4.35;;;0.30;;
67508;SDS011;54354;44.724;11.284;2023-08-06T04:28:51;2.78;;;0.40;;
67508;SDS011;54354;44.724;11.284;2023-08-06T04:31:16;9.65;;;0.40;;
67508;SDS011;54354;44.724;11.284;2023-08-06T04:33:43;3.83;;;0.50;;
67508;SDS011;54354;44.724;11.284;2023-08-06T04:36:12;3.97;;;0.47;;
67508;SDS011;54354;44.724;11.284;2023-08-06T04:38:37;4.03;;;0.40;;
67508;SDS011;54354;44.724;11.284;2023-08-06T04:41:03;2.03;;;0.40;;
67508;SDS011;54354;44.724;11.284;2023-08-06T04:43:29;1.73;;;0.32;;
67508;SDS011;54354;44.724;11.284;2023-08-06T04:45:55;3.97;;;0.50;;
67508;SDS011;54354;44.724;11.284;2023-08-06T04:48:22;1.55;;;0.30;;
67508;SDS011;54354;44.724;11.284;2023-08-06T04:50:48;3.42;;;0.40;;
67508;SDS011;54354;44.724;11.284;2023-08-06T04:53:15;1.65;;;0.50;;
67508;SDS011;54354;44.724;11.284;2023-08-06T04:55:41;2.92;;;0.57;;
67508;SDS011;54354;44.724;11.284;2023-08-06T04:58:07;2.53;;;0.40;;
67508;SDS011;54354;44.724;11.284;2023-08-06T05:00:33;2.60;;;0.30;;
67508;SDS011;54354;44.724;11.284;2023-08-06T05:02:59;1.42;;;0.30;;
67508;SDS011;54354;44.724;11.284;2023-08-06T05:05:26;3.10;;;0.40;;
67508;SDS011;54354;44.724;11.284;2023-08-06T05:07:53;4.57;;;0.73;;
67508;SDS011;54354;44.724;11.284;2023-08-06T05:10:19;3.65;;;0.45;;
67508;SDS011;54354;44.724;11.284;2023-08-06T05:12:45;4.38;;;0.50;;
67508;SDS011;54354;44.724;11.284;2023-08-06T05:15:10;1.67;;;0.38;;
67508;SDS011;54354;44.724;11.284;2023-08-06T05:17:36;2.20;;;0.40;;
67508;SDS011;54354;44.724;11.284;2023-08-06T05:20:02;2.25;;;0.38;;
67508;SDS011;54354;44.724;11.284;2023-08-06T05:22:28;2.40;;;0.45;;
67508;SDS011;54354;44.724;11.284;2023-08-06T05:24:53;3.03;;;0.68;;
67508;SDS011;54354;44.724;11.284;2023-08-06T05:27:19;1.92;;;0.50;;
67508;SDS011;54354;44.724;11.284;2023-08-06T05:29:45;4.90;;;0.80;;
67508;SDS011;54354;44.724;11.284;2023-08-06T05:32:13;3.72;;;0.60;;
67508;SDS011;54354;44.724;11.284;2023-08-06T05:34:39;1.90;;;0.70;;
67508;SDS011;54354;44.724;11.284;2023-08-06T05:37:04;2.55;;;0.50;;
67508;SDS011;54354;44.724;11.284;2023-08-06T05:39:30;2.25;;;0.43;;
67508;SDS011;54354;44.724;11.284;2023-08-06T05:41:56;3.42;;;0.50;;
67508;SDS011;54354;44.724;11.284;2023-08-06T05:44:22;3.10;;;0.50;;
67508;SDS011;54354;44.724;11.284;2023-08-06T05:46:48;2.63;;;0.43;;
67508;SDS011;54354;44.724;11.284;2023-08-06T05:49:14;1.27;;;0.60;;
67508;SDS011;54354;44.724;11.284;2023-08-06T05:51:39;5.40;;;0.70;;
67508;SDS011;54354;44.724;11.284;2023-08-06T05:54:05;2.20;;;0.90;;
67508;SDS011;54354;44.724;11.284;2023-08-06T05:56:30;3.05;;;0.80;;
67508;SDS011;54354;44.724;11.284;2023-08-06T05:58:56;2.03;;;0.77;;
67508;SDS011;54354;44.724;11.284;2023-08-06T06:01:21;1.13;;;0.90;;
67508;SDS011;54354;44.724;11.284;2023-08-06T06:03:47;4.65;;;1.30;;
67508;SDS011;54354;44.724;11.284;2023-08-06T06:06:13;5.35;;;1.38;;
67508;SDS011;54354;44.724;11.284;2023-08-06T06:08:38;3.17;;;1.35;;
67508;SDS011;54354;44.724;11.284;2023-08-06T06:11:04;2.58;;;1.25;;
67508;SDS011;54354;44.724;11.284;2023-08-06T06:13:29;1.75;;;1.50;;
67508;SDS011;54354;44.724;11.284;2023-08-06T06:15:55;2.63;;;1.25;;
67508;SDS011;54354;44.724;11.284;2023-08-06T06:18:21;4.30;;;1.73;;
67508;SDS011;54354;44.724;11.284;2023-08-06T06:20:47;3.58;;;1.80;;
67508;SDS011;54354;44.724;11.284;2023-08-06T06:23:12;2.22;;;1.80;;
67508;SDS011;54354;44.724;11.284;2023-08-06T06:25:57;4.70;;;1.73;;
67508;SDS011;54354;44.724;11.284;2023-08-06T06:28:22;5.68;;;1.95;;
67508;SDS011;54354;44.724;11.284;2023-08-06T06:30:48;3.83;;;2.30;;
67508;SDS011;54354;44.724;11.284;2023-08-06T06:33:13;2.55;;;2.10;;
67508;SDS011;54354;44.724;11.284;2023-08-06T06:35:39;3.05;;;2.22;;
67508;SDS011;54354;44.724;11.284;2023-08-06T06:38:04;3.42;;;2.38;;
67508;SDS011;54354;44.724;11.284;2023-08-06T06:40:30;2.58;;;2.20;;
67508;SDS011;54354;44.724;11.284;2023-08-06T06:42:55;4.07;;;2.80;;
67508;SDS011;54354;44.724;11.284;2023-08-06T06:45:21;3.28;;;2.42;;
67508;SDS011;54354;44.724;11.284;2023-08-06T06:47:46;2.60;;;2.40;;
67508;SDS011;54354;44.724;11.284;2023-08-06T06:50:12;3.13;;;2.83;;
67508;SDS011;54354;44.724;11.284;2023-08-06T06:52:38;4.47;;;2.55;;
67508;SDS011;54354;44.724;11.284;2023-08-06T06:55:03;2.78;;;2.50;;
67508;SDS011;54354;44.724;11.284;2023-08-06T06:57:29;2.60;;;2.40;;
67508;SDS011;54354;44.724;11.284;2023-08-06T06:59:55;3.70;;;2.90;;
67508;SDS011;54354;44.724;11.284;2023-08-06T07:02:20;3.80;;;3.15;;
67508;SDS011;54354;44.724;11.284;2023-08-06T07:04:46;2.65;;;2.25;;
67508;SDS011;54354;44.724;11.284;2023-08-06T07:07:11;5.10;;;2.35;;
67508;SDS011;54354;44.724;11.284;2023-08-06T07:09:37;3.75;;;2.38;;
67508;SDS011;54354;44.724;11.284;2023-08-06T07:12:03;5.38;;;2.50;;
67508;SDS011;54354;44.724;11.284;2023-08-06T07:14:29;4.60;;;2.58;;
67508;SDS011;54354;44.724;11.284;2023-08-06T07:16:54;3.05;;;2.60;;
67508;SDS011;54354;44.724;11.284;2023-08-06T07:19:20;6.97;;;4.13;;
67508;SDS011;54354;44.724;11.284;2023-08-06T07:21:46;5.70;;;3.28;;
67508;SDS011;54354;44.724;11.284;2023-08-06T07:24:11;4.15;;;2.17;;
67508;SDS011;54354;44.724;11.284;2023-08-06T07:26:37;5.60;;;2.40;;
67508;SDS011;54354;44.724;11.284;2023-08-06T07:29:03;4.80;;;3.03;;
67508;SDS011;54354;44.724;11.284;2023-08-06T07:31:28;3.95;;;2.80;;
67508;SDS011;54354;44.724;11.284;2023-08-06T07:33:54;4.30;;;2.10;;
67508;SDS011;54354;44.724;11.284;2023-08-06T07:36:20;4.15;;;3.20;;
67508;SDS011;54354;44.724;11.284;2023-08-06T07:38:45;7.93;;;2.70;;
67508;SDS011;54354;44.724;11.284;2023-08-06T07:41:11;4.35;;;2.80;;
67508;SDS011;54354;44.724;11.284;2023-08-06T07:43:36;2.83;;;2.58;;
67508;SDS011;54354;44.724;11.284;2023-08-06T07:46:02;3.97;;;2.67;;
67508;SDS011;54354;44.724;11.284;2023-08-06T07:48:28;2.03;;;1.80;;
67508;SDS011;54354;44.724;11.284;2023-08-06T07:50:54;2.70;;;2.50;;
67508;SDS011;54354;44.724;11.284;2023-08-06T07:53:21;6.00;;;2.53;;
67508;SDS011;54354;44.724;11.284;2023-08-06T07:55:51;5.07;;;2.33;;
67508;SDS011;54354;44.724;11.284;2023-08-06T07:58:17;3.13;;;2.25;;
67508;SDS011;54354;44.724;11.284;2023-08-06T08:00:43;3.35;;;2.13;;
67508;SDS011;54354;44.724;11.284;2023-08-06T08:03:14;3.72;;;2.20;;
67508;SDS011;54354;44.724;11.284;2023-08-06T08:05:40;2.50;;;2.03;;
67508;SDS011;54354;44.724;11.284;2023-08-06T08:08:07;1.98;;;1.88;;
67508;SDS011;54354;44.724;11.284;2023-08-06T08:10:32;3.08;;;1.85;;
67508;SDS011;54354;44.724;11.284;2023-08-06T08:13:00;1.20;;;1.20;;
67508;SDS011;54354;44.724;11.284;2023-08-06T08:15:27;1.88;;;1.25;;
67508;SDS011;54354;44.724;11.284;2023-08-06T08:17:54;2.03;;;1.50;;
67508;SDS011;54354;44.724;11.284;2023-08-06T08:20:20;1.25;;;1.13;;
67508;SDS011;54354;44.724;11.284;2023-08-06T08:22:46;2.90;;;1.23;;
67508;SDS011;54354;44.724;11.284;2023-08-06T08:25:11;2.03;;;1.25;;
67508;SDS011;54354;44.724;11.284;2023-08-06T08:27:37;1.23;;;1.20;;
67508;SDS011;54354;44.724;11.284;2023-08-06T08:30:03;1.58;;;1.10;;
67508;SDS011;54354;44.724;11.284;2023-08-06T08:32:29;1.30;;;1.20;;
67508;SDS011;54354;44.724;11.284;2023-08-06T08:34:56;1.33;;;0.90;;
67508;SDS011;54354;44.724;11.284;2023-08-06T08:37:22;1.10;;;1.00;;
67508;SDS011;54354;44.724;11.284;2023-08-06T08:39:48;1.20;;;1.10;;
67508;SDS011;54354;44.724;11.284;2023-08-06T08:42:14;0.80;;;0.80;;
67508;SDS011;54354;44.724;11.284;2023-08-06T08:44:40;1.17;;;0.55;;
67508;SDS011;54354;44.724;11.284;2023-08-06T08:47:07;0.40;;;0.30;;
67508;SDS011;54354;44.724;11.284;2023-08-06T08:49:34;0.28;;;0.20;;
67508;SDS011;54354;44.724;11.284;2023-08-06T08:52:01;0.68;;;0.22;;
67508;SDS011;54354;44.724;11.284;2023-08-06T08:54:27;2.33;;;0.30;;
67508;SDS011;54354;44.724;11.284;2023-08-06T08:56:56;0.32;;;0.30;;
67508;SDS011;54354;44.724;11.284;2023-08-06T08:59:22;0.10;;;0.10;;
67508;SDS011;54354;44.724;11.284;2023-08-06T09:01:48;0.20;;;0.17;;
67508;SDS011;54354;44.724;11.284;2023-08-06T09:04:17;0.27;;;0.20;;
67508;SDS011;54354;44.724;11.284;2023-08-06T09:06:50;0.30;;;0.20;;
67508;SDS011;54354;44.724;11.284;2023-08-06T09:09:20;2.20;;;0.30;;
67508;SDS011;54354;44.724;11.284;2023-08-06T09:11:50;1.48;;;0.30;;
67508;SDS011;54354;44.724;11.284;2023-08-06T09:14:16;0.47;;;0.30;;
67508;SDS011;54354;44.724;11.284;2023-08-06T09:16:42;0.88;;;0.30;;
67508;SDS011;54354;44.724;11.284;2023-08-06T09:19:09;2.50;;;0.22;;
67508;SDS011;54354;44.724;11.284;2023-08-06T09:21:38;0.40;;;0.30;;
67508;SDS011;54354;44.724;11.284;2023-08-06T09:24:11;0.60;;;0.35;;
67508;SDS011;54354;44.724;11.284;2023-08-06T09:26:42;0.40;;;0.30;;
67508;SDS011;54354;44.724;11.284;2023-08-06T09:29:09;1.05;;;0.50;;
67508;SDS011;54354;44.724;11.284;2023-08-06T09:34:26;2.80;;;0.50;;
67508;SDS011;54354;44.724;11.284;2023-08-06T09:36:52;0.68;;;0.40;;
67508;SDS011;54354;44.724;11.284;2023-08-06T09:39:26;0.80;;;0.60;;
67508;SDS011;54354;44.724;11.284;2023-08-06T09:41:59;2.58;;;0.60;;
67508;SDS011;54354;44.724;11.284;2023-08-06T09:44:26;1.15;;;0.50;;
67508;SDS011;54354;44.724;11.284;2023-08-06T09:46:54;1.65;;;0.50;;
67508;SDS011;54354;44.724;11.284;2023-08-06T09:50:03;0.85;;;0.50;;
67508;SDS011;54354;44.724;11.284;2023-08-06T09:52:11;1.30;;;0.50;;
67508;SDS011;54354;44.724;11.284;2023-08-06T09:54:38;2.20;;;0.50;;
67508;SDS011;54354;44.724;11.284;2023-08-06T09:57:05;1.83;;;0.60;;
67508;SDS011;54354;44.724;11.284;2023-08-06T09:59:32;1.50;;;0.50;;
67508;SDS011;54354;44.724;11.284;2023-08-06T10:01:57;0.65;;;0.50;;
67508;SDS011;54354;44.724;11.284;2023-08-06T10:04:24;1.75;;;0.73;;
67508;SDS011;54354;44.724;11.284;2023-08-06T10:06:50;3.33;;;0.60;;
67508;SDS011;54354;44.724;11.284;2023-08-06T10:09:16;2.67;;;0.77;;
67508;SDS011;54354;44.724;11.284;2023-08-06T10:11:43;3.20;;;0.70;;
67508;SDS011;54354;44.724;11.284;2023-08-06T10:14:16;2.85;;;0.60;;
67508;SDS011;54354;44.724;11.284;2023-08-06T10:16:46;2.63;;;0.80;;
67508;SDS011;54354;44.724;11.284;2023-08-06T10:19:13;2.50;;;1.00;;
67508;SDS011;54354;44.724;11.284;2023-08-06T10:21:41;5.13;;;0.70;;
67508;SDS011;54354;44.724;11.284;2023-08-06T10:24:07;1.52;;;0.60;;
67508;SDS011;54354;44.724;11.284;2023-08-06T10:26:36;5.40;;;0.70;;
67508;SDS011;54354;44.724;11.284;2023-08-06T10:29:13;3.03;;;0.73;;
67508;SDS011;54354;44.724;11.284;2023-08-06T10:32:03;2.00;;;0.63;;
67508;SDS011;54354;44.724;11.284;2023-08-06T10:37:21;1.60;;;0.60;;
67508;SDS011;54354;44.724;11.284;2023-08-06T10:39:51;2.03;;;0.80;;
67508;SDS011;54354;44.724;11.284;2023-08-06T10:42:21;4.00;;;0.70;;
67508;SDS011;54354;44.724;11.284;2023-08-06T10:45:14;0.93;;;0.60;;
67508;SDS011;54354;44.724;11.284;2023-08-06T10:47:41;3.58;;;0.60;;
67508;SDS011;54354;44.724;11.284;2023-08-06T10:50:11;0.88;;;0.55;;
67508;SDS011;54354;44.724;11.284;2023-08-06T10:52:39;3.00;;;0.63;;
67508;SDS011;54354;44.724;11.284;2023-08-06T10:55:05;1.25;;;0.70;;
67508;SDS011;54354;44.724;11.284;2023-08-06T10:57:31;1.40;;;0.40;;
67508;SDS011;54354;44.724;11.284;2023-08-06T10:59:56;2.67;;;0.70;;
67508;SDS011;54354;44.724;11.284;2023-08-06T11:02:22;3.10;;;0.82;;
67508;SDS011;54354;44.724;11.284;2023-08-06T11:04:48;2.20;;;0.70;;
67508;SDS011;54354;44.724;11.284;2023-08-06T11:07:14;1.95;;;0.60;;
67508;SDS011;54354;44.724;11.284;2023-08-06T11:09:39;0.80;;;0.50;;
67508;SDS011;54354;44.724;11.284;2023-08-06T11:12:11;2.55;;;0.60;;
67508;SDS011;54354;44.724;11.284;2023-08-06T11:14:36;1.45;;;0.70;;
67508;SDS011;54354;44.724;11.284;2023-08-06T11:17:04;4.55;;;0.50;;
67508;SDS011;54354;44.724;11.284;2023-08-06T11:19:30;1.90;;;0.50;;
67508;SDS011;54354;44.724;11.284;2023-08-06T11:21:56;0.98;;;0.50;;
67508;SDS011;54354;44.724;11.284;2023-08-06T11:24:23;1.88;;;0.52;;
67508;SDS011;54354;44.724;11.284;2023-08-06T11:26:49;3.75;;;0.50;;
67508;SDS011;54354;44.724;11.284;2023-08-06T11:29:15;3.78;;;0.60;;
67508;SDS011;54354;44.724;11.284;2023-08-06T11:31:41;1.88;;;0.40;;
67508;SDS011;54354;44.724;11.284;2023-08-06T11:34:06;0.50;;;0.32;;
67508;SDS011;54354;44.724;11.284;2023-08-06T11:36:32;1.83;;;0.55;;
67508;SDS011;54354;44.724;11.284;2023-08-06T11:38:59;0.93;;;0.40;;
67508;SDS011;54354;44.724;11.284;2023-08-06T11:41:27;1.52;;;0.57;;
67508;SDS011;54354;44.724;11.284;2023-08-06T11:43:56;1.10;;;0.70;;
67508;SDS011;54354;44.724;11.284;2023-08-06T11:46:21;2.28;;;0.60;;
67508;SDS011;54354;44.724;11.284;2023-08-06T11:48:58;1.95;;;0.52;;
67508;SDS011;54354;44.724;11.284;2023-08-06T11:51:27;0.93;;;0.60;;
67508;SDS011;54354;44.724;11.284;2023-08-06T11:53:56;1.80;;;0.43;;
67508;SDS011;54354;44.724;11.284;2023-08-06T11:56:22;0.52;;;0.50;;
67508;SDS011;54354;44.724;11.284;2023-08-06T11:58:49;0.70;;;0.60;;
67508;SDS011;54354;44.724;11.284;2023-08-06T12:01:14;1.65;;;0.70;;
67508;SDS011;54354;44.724;11.284;2023-08-06T12:03:40;2.25;;;0.60;;
67508;SDS011;54354;44.724;11.284;2023-08-06T12:06:06;0.70;;;0.60;;
67508;SDS011;54354;44.724;11.284;2023-08-06T12:08:34;3.45;;;0.50;;
67508;SDS011;54354;44.724;11.284;2023-08-06T12:11:00;2.58;;;0.40;;
67508;SDS011;54354;44.724;11.284;2023-08-06T12:13:26;1.38;;;0.52;;
67508;SDS011;54354;44.724;11.284;2023-08-06T12:15:51;1.00;;;0.77;;
67508;SDS011;54354;44.724;11.284;2023-08-06T12:18:19;2.63;;;0.60;;
67508;SDS011;54354;44.724;11.284;2023-08-06T12:20:44;2.35;;;0.60;;
67508;SDS011;54354;44.724;11.284;2023-08-06T12:23:10;3.05;;;0.60;;
67508;SDS011;54354;44.724;11.284;2023-08-06T12:25:38;1.42;;;0.70;;
67508;SDS011;54354;44.724;11.284;2023-08-06T12:28:13;1.42;;;0.70;;
67508;SDS011;54354;44.724;11.284;2023-08-06T12:30:38;0.68;;;0.50;;
67508;SDS011;54354;44.724;11.284;2023-08-06T12:33:08;0.80;;;0.60;;
67508;SDS011;54354;44.724;11.284;2023-08-06T12:35:34;0.65;;;0.60;;
67508;SDS011;54354;44.724;11.284;2023-08-06T12:38:00;1.45;;;0.57;;
67508;SDS011;54354;44.724;11.284;2023-08-06T12:40:26;0.98;;;0.45;;
67508;SDS011;54354;44.724;11.284;2023-08-06T12:42:52;1.25;;;0.50;;
67508;SDS011;54354;44.724;11.284;2023-08-06T12:45:18;1.27;;;0.60;;
67508;SDS011;54354;44.724;11.284;2023-08-06T12:47:46;0.55;;;0.52;;
67508;SDS011;54354;44.724;11.284;2023-08-06T12:50:12;1.38;;;0.60;;
67508;SDS011;54354;44.724;11.284;2023-08-06T12:52:38;3.85;;;0.68;;
67508;SDS011;54354;44.724;11.284;2023-08-06T12:55:03;2.53;;;0.50;;
67508;SDS011;54354;44.724;11.284;2023-08-06T12:57:29;3.97;;;0.68;;
67508;SDS011;54354;44.724;11.284;2023-08-06T12:59:54;3.38;;;0.70;;
67508;SDS011;54354;44.724;11.284;2023-08-06T13:02:20;2.67;;;0.70;;
67508;SDS011;54354;44.724;11.284;2023-08-06T13:04:46;0.70;;;0.50;;
67508;SDS011;54354;44.724;11.284;2023-08-06T13:07:12;2.33;;;0.57;;
67508;SDS011;54354;44.724;11.284;2023-08-06T13:09:38;5.50;;;0.55;;
67508;SDS011;54354;44.724;11.284;2023-08-06T13:12:03;1.05;;;0.50;;
67508;SDS011;54354;44.724;11.284;2023-08-06T13:14:32;2.45;;;0.50;;
67508;SDS011;54354;44.724;11.284;2023-08-06T13:16:58;1.23;;;0.60;;
67508;SDS011;54354;44.724;11.284;2023-08-06T13:19:34;0.57;;;0.57;;
67508;SDS011;54354;44.724;11.284;2023-08-06T13:22:01;0.98;;;0.60;;
67508;SDS011;54354;44.724;11.284;2023-08-06T13:24:29;5.35;;;0.70;;
67508;SDS011;54354;44.724;11.284;2023-08-06T13:26:55;2.47;;;0.80;;
67508;SDS011;54354;44.724;11.284;2023-08-06T13:29:22;2.13;;;0.50;;
67508;SDS011;54354;44.724;11.284;2023-08-06T13:31:50;1.38;;;0.40;;
67508;SDS011;54354;44.724;11.284;2023-08-06T13:34:24;2.35;;;0.60;;
67508;SDS011;54354;44.724;11.284;2023-08-06T13:36:51;2.60;;;0.73;;
67508;SDS011;54354;44.724;11.284;2023-08-06T13:39:17;1.98;;;0.70;;
67508;SDS011;54354;44.724;11.284;2023-08-06T13:41:46;2.78;;;0.60;;
67508;SDS011;54354;44.724;11.284;2023-08-06T13:44:15;1.02;;;0.60;;
67508;SDS011;54354;44.724;11.284;2023-08-06T13:46:40;0.75;;;0.50;;
67508;SDS011;54354;44.724;11.284;2023-08-06T13:49:06;2.75;;;0.60;;
67508;SDS011;54354;44.724;11.284;2023-08-06T13:51:32;2.03;;;0.70;;
67508;SDS011;54354;44.724;11.284;2023-08-06T13:53:59;2.95;;;0.57;;
67508;SDS011;54354;44.724;11.284;2023-08-06T13:56:25;1.05;;;0.60;;
67508;SDS011;54354;44.724;11.284;2023-08-06T13:58:50;2.30;;;0.60;;
67508;SDS011;54354;44.724;11.284;2023-08-06T14:01:16;4.82;;;0.70;;
67508;SDS011;54354;44.724;11.284;2023-08-06T14:03:44;1.05;;;0.55;;
67508;SDS011;54354;44.724;11.284;2023-08-06T14:06:09;3.25;;;0.60;;
67508;SDS011;54354;44.724;11.284;2023-08-06T14:08:35;1.25;;;0.70;;
67508;SDS011;54354;44.724;11.284;2023-08-06T14:11:00;1.13;;;0.60;;
67508;SDS011;54354;44.724;11.284;2023-08-06T14:13:26;0.60;;;0.60;;
67508;SDS011;54354;44.724;11.284;2023-08-06T14:15:51;0.88;;;0.52;;
67508;SDS011;54354;44.724;11.284;2023-08-06T14:18:17;1.00;;;0.75;;
67508;SDS011;54354;44.724;11.284;2023-08-06T14:20:43;1.20;;;0.60;;
67508;SDS011;54354;44.724;11.284;2023-08-06T14:23:09;2.15;;;0.77;;
67508;SDS011;54354;44.724;11.284;2023-08-06T14:25:35;2.80;;;0.60;;
67508;SDS011;54354;44.724;11.284;2023-08-06T14:28:00;0.55;;;0.55;;
67508;SDS011;54354;44.724;11.284;2023-08-06T14:30:26;0.85;;;0.55;;
67508;SDS011;54354;44.724;11.284;2023-08-06T14:32:51;3.03;;;0.70;;
67508;SDS011;54354;44.724;11.284;2023-08-06T14:35:17;4.78;;;0.60;;
67508;SDS011;54354;44.724;11.284;2023-08-06T14:37:43;2.88;;;0.70;;
67508;SDS011;54354;44.724;11.284;2023-08-06T14:40:10;0.65;;;0.57;;
67508;SDS011;54354;44.724;11.284;2023-08-06T14:42:36;5.97;;;0.60;;
67508;SDS011;54354;44.724;11.284;2023-08-06T14:45:02;2.47;;;0.60;;